createdAt,value
2017-12-13T06:44:25.078Z,6.07
2017-12-13T06:46:54.041Z,7.65
2017-12-13T06:51:54.150Z,6.70
2017-12-13T06:54:23.031Z,6.10
2017-12-13T06:56:57.864Z,5.70
2017-12-13T06:59:37.508Z,5.77
2017-12-13T07:02:06.773Z,5.07
2017-12-13T07:04:39.220Z,4.97
2017-12-13T07:07:06.021Z,5.37
2017-12-13T07:09:35.401Z,5.50
2017-12-13T07:12:03.055Z,5.10
2017-12-13T07:14:31.966Z,5.40
2017-12-13T07:17:03.504Z,5.00
2017-12-13T07:19:33.751Z,4.43
2017-12-13T07:22:01.723Z,4.70
2017-12-13T07:24:34.137Z,4.50
2017-12-13T07:27:02.641Z,5.03
2017-12-13T07:29:35.330Z,3.93
2017-12-13T07:32:02.663Z,4.57
2017-12-13T07:34:30.407Z,4.03
2017-12-13T07:37:02.757Z,4.20
2017-12-13T07:39:32.294Z,4.70
2017-12-13T07:42:02.639Z,3.97
2017-12-13T07:44:33.609Z,4.00
2017-12-13T07:47:03.596Z,4.30
2017-12-13T07:49:47.005Z,3.60
2017-12-13T07:52:13.984Z,3.70
2017-12-13T07:54:40.680Z,3.33
2017-12-13T07:57:07.317Z,3.57
2017-12-13T07:59:34.762Z,3.80
2017-12-13T08:02:03.079Z,4.20
2017-12-13T08:04:33.679Z,4.00
2017-12-13T08:07:02.454Z,3.97
2017-12-13T08:09:31.375Z,4.30
2017-12-13T08:12:00.884Z,4.13
2017-12-13T08:14:33.063Z,3.83
2017-12-13T08:17:00.096Z,3.60
2017-12-13T08:19:29.520Z,4.30
2017-12-13T08:22:01.773Z,4.60
2017-12-13T08:24:33.324Z,4.10
2017-12-13T08:27:11.260Z,3.50
2017-12-13T08:29:40.280Z,4.80
2017-12-13T08:32:06.909Z,4.20
2017-12-13T08:34:33.556Z,4.60
2017-12-13T08:37:06.366Z,3.77
2017-12-13T08:39:38.754Z,5.00
2017-12-13T08:42:09.332Z,5.47
2017-12-13T08:44:37.785Z,4.53
2017-12-13T08:47:04.423Z,6.37
2017-12-13T08:49:31.072Z,4.90
2017-12-13T08:51:57.801Z,5.40
2017-12-13T08:54:27.884Z,4.73
2017-12-13T08:56:57.385Z,4.73
2017-12-13T08:59:26.024Z,5.00
2017-12-13T09:01:55.584Z,5.30
2017-12-13T09:04:35.270Z,5.07
2017-12-13T09:07:02.180Z,4.90
2017-12-13T09:09:28.828Z,4.83
2017-12-13T09:11:56.826Z,4.70
2017-12-13T09:14:28.108Z,6.00
2017-12-13T09:16:57.320Z,5.33
2017-12-13T09:19:26.028Z,5.77
2017-12-13T09:21:52.940Z,6.53
2017-12-13T09:24:19.572Z,5.87
2017-12-13T09:26:46.225Z,5.80
2017-12-13T09:29:12.892Z,6.17
2017-12-13T09:31:42.629Z,7.27
2017-12-13T09:34:11.582Z,5.27
2017-12-13T09:36:40.948Z,6.20
2017-12-13T09:39:11.840Z,6.97
2017-12-13T09:41:40.693Z,6.30
2017-12-13T09:44:09.882Z,5.50
2017-12-13T09:46:41.756Z,5.70
2017-12-13T09:49:12.145Z,6.40
2017-12-13T09:51:42.365Z,6.27
2017-12-13T09:54:11.143Z,5.47
2017-12-13T09:56:41.173Z,5.80
2017-12-13T09:59:11.205Z,7.23
2017-12-13T10:01:40.488Z,5.70
2017-12-13T10:04:10.451Z,6.97
2017-12-13T10:06:42.212Z,5.93
2017-12-13T10:09:12.240Z,5.53
2017-12-13T10:11:42.700Z,6.10
2017-12-13T10:14:12.591Z,5.83
2017-12-13T10:16:41.152Z,5.27
2017-12-13T10:19:09.396Z,5.57
2017-12-13T10:21:40.806Z,5.33
2017-12-13T10:24:10.002Z,5.17
2017-12-13T10:26:42.812Z,4.67
2017-12-13T10:29:14.576Z,3.90
2017-12-13T10:31:42.020Z,4.27
2017-12-13T10:34:10.505Z,4.50
2017-12-13T10:36:41.990Z,4.73
2017-12-13T10:39:09.402Z,3.93
2017-12-13T10:41:40.868Z,4.43
2017-12-13T10:44:12.345Z,4.37
2017-12-13T10:46:42.323Z,4.50
2017-12-13T10:49:18.406Z,3.93
2017-12-13T10:51:45.052Z,4.17
2017-12-13T10:54:11.987Z,4.10
2017-12-13T10:56:40.890Z,4.67
2017-12-13T10:59:11.219Z,3.17
2017-12-13T11:01:40.921Z,4.03
2017-12-13T11:04:11.720Z,2.90
2017-12-13T11:06:42.625Z,2.83
2017-12-13T11:09:12.602Z,2.27
2017-12-13T11:11:42.212Z,2.10
2017-12-13T11:14:11.308Z,1.80
2017-12-13T11:16:42.284Z,1.97
2017-12-13T11:19:12.300Z,2.20
2017-12-13T11:21:42.256Z,2.00
2017-12-13T11:24:12.828Z,2.13
2017-12-13T11:26:41.103Z,2.00
2017-12-13T11:29:13.878Z,2.00
2017-12-13T11:31:42.771Z,2.23
2017-12-13T11:34:12.809Z,1.80
2017-12-13T11:36:42.465Z,2.10
2017-12-13T11:39:10.944Z,2.40
2017-12-13T11:41:42.358Z,2.43
2017-12-13T11:44:11.916Z,2.60
2017-12-13T11:46:42.504Z,1.57
2017-12-13T11:49:11.855Z,1.47
2017-12-13T11:51:42.549Z,1.43
2017-12-13T11:54:10.863Z,0.90
2017-12-13T11:56:44.489Z,0.83
2017-12-13T11:59:13.161Z,0.90
2017-12-13T12:01:42.803Z,0.80
2017-12-13T12:04:11.127Z,0.80
2017-12-13T12:06:40.360Z,0.77
2017-12-13T12:09:12.109Z,0.93
2017-12-13T12:11:47.714Z,0.80
2017-12-13T12:14:14.417Z,0.83
2017-12-13T12:16:41.992Z,0.80
2017-12-13T12:19:12.808Z,0.87
2017-12-13T12:21:54.431Z,0.87
2017-12-13T12:24:21.311Z,1.10
2017-12-13T12:26:47.960Z,1.00
2017-12-13T12:29:14.584Z,1.10
2017-12-13T12:31:44.004Z,1.10
2017-12-13T12:34:12.869Z,0.90
2017-12-13T12:36:42.671Z,0.90
2017-12-13T12:39:12.476Z,1.10
2017-12-13T12:41:43.054Z,0.77
2017-12-13T12:44:12.526Z,0.90
2017-12-13T12:46:43.552Z,1.00
2017-12-13T12:49:13.077Z,0.70
2017-12-13T12:51:41.608Z,1.00
2017-12-13T12:54:12.482Z,0.93
2017-12-13T12:56:41.557Z,0.77
2017-12-13T12:59:11.860Z,0.70
2017-12-13T13:01:42.235Z,0.97
2017-12-13T13:04:12.624Z,0.90
2017-12-13T13:06:42.094Z,0.90
2017-12-13T13:09:13.002Z,0.90
2017-12-13T13:11:48.202Z,0.90
2017-12-13T13:14:14.870Z,0.90
2017-12-13T13:16:41.533Z,1.20
2017-12-13T13:19:11.659Z,1.10
2017-12-13T13:21:41.284Z,1.77
2017-12-13T13:24:13.130Z,1.47
2017-12-13T13:26:40.665Z,1.30
2017-12-13T13:29:20.626Z,1.00
2017-12-13T13:31:47.361Z,1.00
2017-12-13T13:34:13.997Z,0.90
2017-12-13T13:36:40.652Z,1.17
2017-12-13T13:39:09.597Z,0.80
2017-12-13T13:41:39.432Z,1.23
2017-12-13T13:44:09.929Z,0.90
2017-12-13T13:46:50.274Z,0.80
2017-12-13T13:49:16.920Z,1.07
2017-12-13T13:51:43.556Z,1.10
2017-12-13T13:54:10.652Z,0.80
2017-12-13T13:56:39.123Z,1.03
2017-12-13T13:59:09.519Z,0.73
2017-12-13T14:01:40.260Z,0.90
2017-12-13T14:04:08.729Z,0.70
2017-12-13T14:06:36.370Z,0.80
2017-12-13T14:09:06.178Z,0.90
2017-12-13T14:11:35.240Z,0.80
2017-12-13T14:14:09.361Z,0.90
2017-12-13T14:16:36.566Z,0.90
2017-12-13T14:19:09.282Z,0.80
2017-12-13T14:21:38.998Z,0.90
2017-12-13T14:24:10.353Z,0.80
2017-12-13T14:26:37.268Z,0.83
2017-12-13T14:29:07.725Z,0.90
2017-12-13T14:31:40.120Z,0.80
2017-12-13T14:34:08.365Z,0.80
2017-12-13T14:36:41.653Z,0.90
2017-12-13T14:39:11.060Z,0.80
2017-12-13T14:41:41.813Z,0.80
2017-12-13T14:44:11.107Z,0.90
2017-12-13T14:46:40.711Z,1.10
2017-12-13T14:49:11.753Z,0.90
2017-12-13T14:51:40.813Z,1.07
2017-12-13T14:54:10.658Z,0.90
2017-12-13T14:56:40.128Z,0.90
2017-12-13T14:59:10.701Z,0.90
2017-12-13T15:01:49.178Z,0.80
2017-12-13T15:04:16.228Z,1.10
2017-12-13T15:06:42.866Z,1.10
2017-12-13T15:09:10.670Z,0.90
2017-12-13T15:11:41.352Z,0.80
2017-12-13T15:14:10.173Z,1.07
2017-12-13T15:16:38.412Z,1.00
2017-12-13T15:19:10.719Z,1.27
2017-12-13T15:21:38.473Z,1.10
2017-12-13T15:24:05.502Z,1.00
2017-12-13T15:26:32.389Z,1.20
2017-12-13T15:28:59.356Z,1.10
2017-12-13T15:31:26.055Z,0.90
2017-12-13T15:33:52.942Z,0.90
2017-12-13T15:36:19.677Z,0.93
2017-12-13T15:38:46.312Z,1.00
2017-12-13T15:41:12.968Z,1.03
2017-12-13T15:43:39.609Z,1.00
2017-12-13T15:46:06.345Z,1.33
2017-12-13T15:48:33.084Z,1.20
2017-12-13T15:51:00.434Z,1.37
2017-12-13T15:53:27.087Z,1.40
2017-12-13T15:55:53.725Z,1.70
2017-12-13T15:58:20.418Z,2.50
2017-12-13T16:00:47.120Z,2.00
2017-12-13T16:03:13.761Z,2.17
2017-12-13T16:05:42.349Z,2.47
2017-12-13T16:08:10.408Z,1.90
2017-12-13T16:10:37.578Z,2.20
2017-12-13T16:13:08.455Z,2.00
2017-12-13T16:15:38.565Z,1.90
2017-12-13T16:18:10.885Z,1.97
2017-12-13T16:20:41.071Z,1.70
2017-12-13T16:23:09.419Z,1.97
2017-12-13T16:25:39.507Z,2.07
2017-12-13T16:28:10.062Z,1.73
2017-12-13T16:30:41.865Z,1.47
2017-12-13T16:33:10.923Z,1.73
2017-12-13T16:35:42.326Z,2.03
2017-12-13T16:38:12.253Z,1.33
2017-12-13T16:40:42.304Z,1.47
2017-12-13T16:43:10.914Z,1.77
2017-12-13T16:45:42.280Z,1.43
2017-12-13T16:48:11.252Z,1.20
2017-12-13T16:50:42.160Z,1.63
2017-12-13T16:53:10.572Z,1.60
2017-12-13T16:55:40.576Z,1.50
2017-12-13T16:58:11.854Z,2.00
2017-12-13T17:00:41.415Z,1.97
2017-12-13T17:03:10.798Z,2.03
2017-12-13T17:05:39.130Z,2.37
2017-12-13T17:08:08.431Z,2.40
2017-12-13T17:10:41.521Z,1.80
2017-12-13T17:13:11.956Z,2.00
2017-12-13T17:15:40.969Z,2.63
2017-12-13T17:18:11.453Z,2.03
2017-12-13T17:20:39.937Z,2.13
2017-12-13T17:23:10.242Z,2.40
2017-12-13T17:25:41.353Z,3.50
2017-12-13T17:28:11.912Z,3.57
2017-12-13T17:30:40.946Z,4.13
2017-12-13T17:33:10.577Z,3.10
2017-12-13T17:35:40.224Z,2.20
2017-12-13T17:38:10.936Z,3.03
2017-12-13T17:40:41.937Z,2.40
2017-12-13T17:43:12.005Z,2.07
2017-12-13T17:45:40.980Z,2.57
2017-12-13T17:48:11.984Z,2.50
2017-12-13T17:50:41.592Z,2.00
2017-12-13T17:53:10.988Z,2.30
2017-12-13T17:55:39.377Z,1.77
2017-12-13T17:58:10.717Z,2.00
2017-12-13T18:00:40.158Z,1.83
2017-12-13T18:03:11.226Z,1.90
2017-12-13T18:05:42.349Z,2.10
2017-12-13T18:08:11.684Z,1.77
2017-12-13T18:10:40.988Z,1.70
2017-12-13T18:13:11.018Z,2.07
2017-12-13T18:15:40.989Z,1.77
2017-12-13T18:18:10.394Z,2.70
2017-12-13T18:20:40.048Z,2.70
2017-12-13T18:23:09.226Z,2.40
2017-12-13T18:25:39.745Z,2.80
2017-12-13T18:28:10.320Z,2.60
2017-12-13T18:30:40.965Z,3.03
2017-12-13T18:33:10.933Z,2.50
2017-12-13T18:35:40.594Z,3.13
2017-12-13T18:38:11.689Z,2.63
2017-12-13T18:40:41.380Z,3.37
2017-12-13T18:43:11.964Z,2.87
2017-12-13T18:45:40.274Z,3.67
2017-12-13T18:48:08.385Z,3.57
2017-12-13T18:50:41.950Z,3.07
2017-12-13T18:53:09.707Z,3.17
2017-12-13T18:55:39.010Z,3.07
2017-12-13T18:58:11.436Z,2.87
2017-12-13T19:00:40.292Z,3.30
2017-12-13T19:03:06.924Z,3.50
2017-12-13T19:05:33.577Z,3.63
2017-12-13T19:08:00.977Z,3.20
2017-12-13T19:10:29.652Z,3.67
2017-12-13T19:12:59.593Z,4.10
2017-12-13T19:15:31.155Z,2.90
2017-12-13T19:17:59.852Z,3.40
2017-12-13T19:20:31.101Z,3.30
2017-12-13T19:23:01.128Z,3.20
2017-12-13T19:25:30.865Z,2.77
2017-12-13T19:27:58.821Z,3.13
2017-12-13T19:30:33.190Z,3.33
2017-12-13T19:32:59.848Z,2.63
2017-12-13T19:35:41.975Z,3.60
2017-12-13T19:38:08.807Z,2.27
2017-12-13T19:40:35.432Z,2.67
2017-12-13T19:43:02.077Z,3.27
2017-12-13T19:45:29.584Z,3.70
2017-12-13T19:47:58.892Z,3.50
2017-12-13T19:50:29.980Z,4.73
2017-12-13T19:53:00.900Z,3.50
2017-12-13T19:55:28.952Z,3.03
2017-12-13T19:57:57.530Z,3.60
2017-12-13T20:00:30.868Z,4.73
2017-12-13T20:02:57.529Z,3.23
2017-12-13T20:05:30.700Z,3.23
2017-12-13T20:08:00.242Z,3.10
2017-12-13T20:10:30.096Z,3.13
2017-12-13T20:13:01.113Z,2.70
2017-12-13T20:15:31.094Z,2.30
2017-12-13T20:18:04.593Z,2.30
2017-12-13T20:20:32.323Z,3.20
2017-12-13T20:23:00.409Z,2.07
2017-12-13T20:25:29.145Z,2.87
2017-12-13T20:28:00.048Z,2.70
2017-12-13T20:30:28.722Z,2.63
2017-12-13T20:32:58.075Z,2.20
2017-12-13T20:35:32.195Z,2.90
2017-12-13T20:38:00.233Z,3.00
2017-12-13T20:40:27.879Z,2.63
2017-12-13T20:43:01.088Z,2.47
2017-12-13T20:45:30.469Z,2.23
2017-12-13T20:47:58.897Z,2.27
2017-12-13T20:50:30.261Z,2.43
2017-12-13T20:53:01.577Z,2.40
2017-12-13T20:55:30.767Z,2.50
2017-12-13T20:57:59.058Z,2.30
2017-12-13T21:00:28.570Z,2.10
2017-12-13T21:02:59.486Z,2.57
2017-12-13T21:05:28.001Z,2.10
2017-12-13T21:07:56.791Z,3.23
2017-12-13T21:10:24.631Z,2.57
2017-12-13T21:12:53.838Z,1.70
2017-12-13T21:15:23.556Z,1.00
2017-12-13T21:17:54.361Z,1.20
2017-12-13T21:20:23.093Z,0.83
2017-12-13T21:22:53.984Z,1.00
2017-12-13T21:25:21.288Z,0.80
2017-12-13T21:27:47.947Z,0.80
2017-12-13T21:30:15.522Z,0.77
2017-12-13T21:32:42.626Z,0.90
2017-12-13T21:35:09.339Z,1.00
2017-12-13T21:37:36.099Z,0.87
2017-12-13T21:40:02.748Z,0.80
2017-12-13T21:42:29.385Z,0.83
2017-12-13T21:44:56.103Z,1.00
2017-12-13T21:47:25.414Z,1.20
2017-12-13T21:49:53.558Z,1.07
2017-12-13T21:52:23.881Z,1.00
2017-12-13T21:54:54.234Z,1.57
2017-12-13T21:57:23.573Z,1.00
2017-12-13T21:59:51.424Z,0.90
2017-12-13T22:02:18.215Z,1.00
2017-12-13T22:04:45.450Z,1.13
2017-12-13T22:07:12.960Z,1.10
2017-12-13T22:09:39.747Z,1.10
2017-12-13T22:12:06.716Z,1.03
2017-12-13T22:14:33.349Z,0.90
2017-12-13T22:17:00.109Z,1.10
2017-12-13T22:19:26.742Z,0.97
2017-12-13T22:21:54.164Z,0.90
2017-12-13T22:24:21.821Z,1.23
2017-12-13T22:26:51.629Z,1.20
2017-12-13T22:29:18.289Z,2.83
2017-12-13T22:31:44.948Z,1.73
2017-12-13T22:34:13.036Z,1.50
2017-12-13T22:36:41.212Z,1.90
2017-12-13T22:39:08.442Z,1.80
2017-12-13T22:41:35.093Z,2.20
2017-12-13T22:44:01.741Z,2.80
2017-12-13T22:46:28.412Z,2.47
2017-12-13T22:48:59.541Z,2.40
2017-12-13T22:51:28.904Z,2.20
2017-12-13T22:53:57.233Z,2.60
2017-12-13T22:56:24.417Z,3.33
2017-12-13T22:58:57.395Z,3.80
2017-12-13T23:01:30.559Z,3.77
2017-12-13T23:03:59.704Z,3.80
2017-12-13T23:06:30.292Z,3.70
2017-12-13T23:08:58.756Z,3.30
2017-12-13T23:11:30.576Z,3.07
2017-12-13T23:14:01.021Z,2.90
2017-12-13T23:16:40.090Z,3.40
2017-12-13T23:19:08.131Z,5.40
2017-12-13T23:21:37.433Z,3.40
2017-12-13T23:24:04.068Z,3.50
2017-12-13T23:26:32.220Z,2.90
2017-12-13T23:29:00.512Z,3.40
2017-12-13T23:31:29.442Z,6.10
2017-12-13T23:33:58.849Z,3.00
2017-12-13T23:36:28.457Z,3.47
2017-12-13T23:39:00.423Z,4.03
2017-12-13T23:41:30.790Z,3.50
2017-12-13T23:43:58.664Z,3.17
2017-12-13T23:46:30.725Z,4.10
2017-12-13T23:48:58.893Z,3.47
2017-12-13T23:51:29.687Z,3.23
2017-12-13T23:54:00.013Z,3.13
2017-12-13T23:56:30.389Z,3.47
2017-12-13T23:58:58.738Z,2.87
